sensor_id;sensor_type;location;lat;lon;timestamp;temperature;humidity
51884;DHT22;37915;53.254;6.598;2023-04-24T00:00:25;11.00;99.90
51884;DHT22;37915;53.254;6.598;2023-04-24T00:02:51;11.00;99.90
51884;DHT22;37915;53.254;6.598;2023-04-24T00:05:17;11.00;99.90
51884;DHT22;37915;53.254;6.598;2023-04-24T00:07:44;11.00;99.90
51884;DHT22;37915;53.254;6.598;2023-04-24T00:10:10;11.00;99.90
51884;DHT22;37915;53.254;6.598;2023-04-24T00:12:37;11.00;99.90
51884;DHT22;37915;53.254;6.598;2023-04-24T00:15:03;11.00;99.90
51884;DHT22;37915;53.254;6.598;2023-04-24T00:17:29;11.00;99.90
51884;DHT22;37915;53.254;6.598;2023-04-24T00:19:56;11.00;99.90
51884;DHT22;37915;53.254;6.598;2023-04-24T00:22:25;11.00;99.90
51884;DHT22;37915;53.254;6.598;2023-04-24T00:24:51;11.00;99.90
51884;DHT22;37915;53.254;6.598;2023-04-24T00:27:16;11.00;99.90
51884;DHT22;37915;53.254;6.598;2023-04-24T00:29:42;11.00;99.90
51884;DHT22;37915;53.254;6.598;2023-04-24T00:32:08;11.00;99.90
51884;DHT22;37915;53.254;6.598;2023-04-24T00:34:33;10.90;99.90
51884;DHT22;37915;53.254;6.598;2023-04-24T00:36:59;10.90;99.90
51884;DHT22;37915;53.254;6.598;2023-04-24T00:39:25;10.90;99.90
51884;DHT22;37915;53.254;6.598;2023-04-24T00:41:51;10.80;99.90
51884;DHT22;37915;53.254;6.598;2023-04-24T00:44:16;10.90;99.90
51884;DHT22;37915;53.254;6.598;2023-04-24T00:46:42;10.80;99.90
51884;DHT22;37915;53.254;6.598;2023-04-24T00:49:08;10.70;99.90
51884;DHT22;37915;53.254;6.598;2023-04-24T00:51:34;10.70;99.90
51884;DHT22;37915;53.254;6.598;2023-04-24T00:54:00;10.60;99.90
51884;DHT22;37915;53.254;6.598;2023-04-24T00:56:27;10.60;99.90
51884;DHT22;37915;53.254;6.598;2023-04-24T00:58:53;10.60;99.90
51884;DHT22;37915;53.254;6.598;2023-04-24T01:01:22;10.50;99.90
51884;DHT22;37915;53.254;6.598;2023-04-24T01:03:51;10.50;99.90
51884;DHT22;37915;53.254;6.598;2023-04-24T01:06:19;10.50;99.90
51884;DHT22;37915;53.254;6.598;2023-04-24T01:08:46;10.50;99.90
51884;DHT22;37915;53.254;6.598;2023-04-24T01:11:13;10.50;99.90
51884;DHT22;37915;53.254;6.598;2023-04-24T01:13:39;10.40;99.90
51884;DHT22;37915;53.254;6.598;2023-04-24T01:16:05;10.40;99.90
51884;DHT22;37915;53.254;6.598;2023-04-24T01:18:31;10.40;99.90
51884;DHT22;37915;53.254;6.598;2023-04-24T01:21:03;10.40;99.90
51884;DHT22;37915;53.254;6.598;2023-04-24T01:23:29;10.40;99.90
51884;DHT22;37915;53.254;6.598;2023-04-24T01:25:55;10.30;99.90
51884;DHT22;37915;53.254;6.598;2023-04-24T01:28:21;10.30;99.90
51884;DHT22;37915;53.254;6.598;2023-04-24T01:30:47;10.30;99.90
51884;DHT22;37915;53.254;6.598;2023-04-24T01:33:13;10.30;99.90
51884;DHT22;37915;53.254;6.598;2023-04-24T01:35:38;10.20;99.90
51884;DHT22;37915;53.254;6.598;2023-04-24T01:38:04;10.20;99.90
51884;DHT22;37915;53.254;6.598;2023-04-24T01:40:31;10.20;99.90
51884;DHT22;37915;53.254;6.598;2023-04-24T01:42:58;10.20;99.90
51884;DHT22;37915;53.254;6.598;2023-04-24T01:45:24;10.20;99.90
51884;DHT22;37915;53.254;6.598;2023-04-24T01:47:50;10.20;99.90
51884;DHT22;37915;53.254;6.598;2023-04-24T01:50:16;10.20;99.90
51884;DHT22;37915;53.254;6.598;2023-04-24T01:52:42;10.20;99.90
51884;DHT22;37915;53.254;6.598;2023-04-24T01:55:09;10.20;99.90
51884;DHT22;37915;53.254;6.598;2023-04-24T01:57:35;10.20;99.90
51884;DHT22;37915;53.254;6.598;2023-04-24T02:00:02;10.20;99.90
51884;DHT22;37915;53.254;6.598;2023-04-24T02:02:29;10.20;99.90
51884;DHT22;37915;53.254;6.598;2023-04-24T02:04:56;10.20;99.90
51884;DHT22;37915;53.254;6.598;2023-04-24T02:07:21;10.20;99.90
51884;DHT22;37915;53.254;6.598;2023-04-24T02:09:47;10.10;99.90
51884;DHT22;37915;53.254;6.598;2023-04-24T02:12:14;10.10;99.90
51884;DHT22;37915;53.254;6.598;2023-04-24T02:14:40;10.10;99.90
51884;DHT22;37915;53.254;6.598;2023-04-24T02:17:07;10.10;99.90
51884;DHT22;37915;53.254;6.598;2023-04-24T02:19:33;10.10;99.90
51884;DHT22;37915;53.254;6.598;2023-04-24T02:21:59;10.10;99.90
51884;DHT22;37915;53.254;6.598;2023-04-24T02:24:24;10.00;99.90
51884;DHT22;37915;53.254;6.598;2023-04-24T02:26:50;10.00;99.90
51884;DHT22;37915;53.254;6.598;2023-04-24T02:29:16;10.00;99.90
51884;DHT22;37915;53.254;6.598;2023-04-24T02:31:41;10.00;99.90
51884;DHT22;37915;53.254;6.598;2023-04-24T02:34:07;9.90;99.90
51884;DHT22;37915;53.254;6.598;2023-04-24T02:36:33;9.90;99.90
51884;DHT22;37915;53.254;6.598;2023-04-24T02:38:58;9.90;99.90
51884;DHT22;37915;53.254;6.598;2023-04-24T02:41:24;9.90;99.90
51884;DHT22;37915;53.254;6.598;2023-04-24T02:43:50;9.90;99.90
51884;DHT22;37915;53.254;6.598;2023-04-24T02:46:16;9.90;99.90
51884;DHT22;37915;53.254;6.598;2023-04-24T02:48:41;9.90;99.90
51884;DHT22;37915;53.254;6.598;2023-04-24T02:51:07;9.90;99.90
51884;DHT22;37915;53.254;6.598;2023-04-24T02:53:33;9.90;99.90
51884;DHT22;37915;53.254;6.598;2023-04-24T02:55:58;9.90;99.90
51884;DHT22;37915;53.254;6.598;2023-04-24T02:58:24;9.90;99.90
51884;DHT22;37915;53.254;6.598;2023-04-24T03:00:54;9.90;99.90
51884;DHT22;37915;53.254;6.598;2023-04-24T03:03:21;9.90;99.90
51884;DHT22;37915;53.254;6.598;2023-04-24T03:05:46;9.90;99.90
51884;DHT22;37915;53.254;6.598;2023-04-24T03:08:12;9.90;99.90
51884;DHT22;37915;53.254;6.598;2023-04-24T03:10:38;10.00;99.90
51884;DHT22;37915;53.254;6.598;2023-04-24T03:13:03;10.00;99.90
51884;DHT22;37915;53.254;6.598;2023-04-24T03:15:29;10.00;99.90
51884;DHT22;37915;53.254;6.598;2023-04-24T03:17:55;10.00;99.90
51884;DHT22;37915;53.254;6.598;2023-04-24T03:20:20;10.00;99.90
51884;DHT22;37915;53.254;6.598;2023-04-24T03:22:46;10.00;99.90
51884;DHT22;37915;53.254;6.598;2023-04-24T03:25:12;10.00;99.90
51884;DHT22;37915;53.254;6.598;2023-04-24T03:27:38;10.00;99.90
51884;DHT22;37915;53.254;6.598;2023-04-24T03:30:08;10.00;99.90
51884;DHT22;37915;53.254;6.598;2023-04-24T03:32:34;10.00;99.90
51884;DHT22;37915;53.254;6.598;2023-04-24T03:34:59;10.00;99.90
51884;DHT22;37915;53.254;6.598;2023-04-24T03:37:25;10.00;99.90
51884;DHT22;37915;53.254;6.598;2023-04-24T03:39:52;10.00;99.90
51884;DHT22;37915;53.254;6.598;2023-04-24T03:42:18;10.00;99.90
51884;DHT22;37915;53.254;6.598;2023-04-24T03:44:43;10.10;99.90
51884;DHT22;37915;53.254;6.598;2023-04-24T03:47:09;10.00;99.90
51884;DHT22;37915;53.254;6.598;2023-04-24T03:49:35;10.00;99.90
51884;DHT22;37915;53.254;6.598;2023-04-24T03:52:00;10.00;99.90
51884;DHT22;37915;53.254;6.598;2023-04-24T03:54:26;10.00;99.90
51884;DHT22;37915;53.254;6.598;2023-04-24T03:56:52;10.10;99.90
51884;DHT22;37915;53.254;6.598;2023-04-24T03:59:18;10.10;99.90
51884;DHT22;37915;53.254;6.598;2023-04-24T04:01:44;10.00;99.90
51884;DHT22;37915;53.254;6.598;2023-04-24T04:04:11;10.10;99.90
51884;DHT22;37915;53.254;6.598;2023-04-24T04:06:37;10.00;99.90
51884;DHT22;37915;53.254;6.598;2023-04-24T04:09:03;10.10;99.90
51884;DHT22;37915;53.254;6.598;2023-04-24T04:11:28;10.00;99.90
51884;DHT22;37915;53.254;6.598;2023-04-24T04:13:55;10.10;99.90
51884;DHT22;37915;53.254;6.598;2023-04-24T04:16:22;10.00;99.90
51884;DHT22;37915;53.254;6.598;2023-04-24T04:18:48;10.00;99.90
51884;DHT22;37915;53.254;6.598;2023-04-24T04:21:13;10.00;99.90
51884;DHT22;37915;53.254;6.598;2023-04-24T04:23:39;10.00;99.90
51884;DHT22;37915;53.254;6.598;2023-04-24T04:26:05;10.00;99.90
51884;DHT22;37915;53.254;6.598;2023-04-24T04:28:31;10.00;99.90
51884;DHT22;37915;53.254;6.598;2023-04-24T04:30:57;10.00;99.90
51884;DHT22;37915;53.254;6.598;2023-04-24T04:33:24;10.00;99.90
51884;DHT22;37915;53.254;6.598;2023-04-24T04:35:51;10.00;99.90
51884;DHT22;37915;53.254;6.598;2023-04-24T04:38:22;10.00;99.90
51884;DHT22;37915;53.254;6.598;2023-04-24T04:40:48;10.00;99.90
51884;DHT22;37915;53.254;6.598;2023-04-24T04:43:14;10.40;99.90
51884;DHT22;37915;53.254;6.598;2023-04-24T04:45:40;10.00;99.90
51884;DHT22;37915;53.254;6.598;2023-04-24T04:48:08;10.00;99.90
51884;DHT22;37915;53.254;6.598;2023-04-24T04:50:35;10.00;99.90
51884;DHT22;37915;53.254;6.598;2023-04-24T04:53:01;10.00;99.90
51884;DHT22;37915;53.254;6.598;2023-04-24T04:55:26;10.00;99.90
51884;DHT22;37915;53.254;6.598;2023-04-24T04:57:52;10.00;99.90
51884;DHT22;37915;53.254;6.598;2023-04-24T05:00:18;10.00;99.90
51884;DHT22;37915;53.254;6.598;2023-04-24T05:02:44;9.90;99.90
51884;DHT22;37915;53.254;6.598;2023-04-24T05:05:10;10.00;99.90
51884;DHT22;37915;53.254;6.598;2023-04-24T05:07:36;10.00;99.90
51884;DHT22;37915;53.254;6.598;2023-04-24T05:10:02;10.00;99.90
51884;DHT22;37915;53.254;6.598;2023-04-24T05:12:27;10.00;99.90
51884;DHT22;37915;53.254;6.598;2023-04-24T05:14:53;10.00;99.90
51884;DHT22;37915;53.254;6.598;2023-04-24T05:17:19;10.00;99.90
51884;DHT22;37915;53.254;6.598;2023-04-24T05:19:45;10.00;99.90
51884;DHT22;37915;53.254;6.598;2023-04-24T05:22:11;10.00;99.90
51884;DHT22;37915;53.254;6.598;2023-04-24T05:24:37;10.00;99.90
51884;DHT22;37915;53.254;6.598;2023-04-24T05:27:04;10.10;99.90
51884;DHT22;37915;53.254;6.598;2023-04-24T05:29:30;10.10;99.90
51884;DHT22;37915;53.254;6.598;2023-04-24T05:31:57;10.10;99.90
51884;DHT22;37915;53.254;6.598;2023-04-24T05:34:23;10.10;99.90
51884;DHT22;37915;53.254;6.598;2023-04-24T05:36:49;10.10;99.90
51884;DHT22;37915;53.254;6.598;2023-04-24T05:39:16;10.10;99.90
51884;DHT22;37915;53.254;6.598;2023-04-24T05:41:42;10.10;99.90
51884;DHT22;37915;53.254;6.598;2023-04-24T05:44:07;10.10;99.90
51884;DHT22;37915;53.254;6.598;2023-04-24T05:46:33;10.10;99.90
51884;DHT22;37915;53.254;6.598;2023-04-24T05:48:59;10.00;99.90
51884;DHT22;37915;53.254;6.598;2023-04-24T05:51:24;10.10;99.90
51884;DHT22;37915;53.254;6.598;2023-04-24T05:53:51;10.10;99.90
51884;DHT22;37915;53.254;6.598;2023-04-24T05:56:18;10.10;99.90
51884;DHT22;37915;53.254;6.598;2023-04-24T05:58:44;10.10;99.90
51884;DHT22;37915;53.254;6.598;2023-04-24T06:01:11;10.10;99.90
51884;DHT22;37915;53.254;6.598;2023-04-24T06:03:38;10.90;99.90
51884;DHT22;37915;53.254;6.598;2023-04-24T06:06:05;10.10;99.90
51884;DHT22;37915;53.254;6.598;2023-04-24T06:08:31;10.10;99.90
51884;DHT22;37915;53.254;6.598;2023-04-24T06:10:57;10.10;99.90
51884;DHT22;37915;53.254;6.598;2023-04-24T06:13:22;10.00;99.90
51884;DHT22;37915;53.254;6.598;2023-04-24T06:15:48;10.00;99.90
51884;DHT22;37915;53.254;6.598;2023-04-24T06:18:13;9.90;99.90
51884;DHT22;37915;53.254;6.598;2023-04-24T06:20:39;10.00;99.90
51884;DHT22;37915;53.254;6.598;2023-04-24T06:23:05;10.00;99.90
51884;DHT22;37915;53.254;6.598;2023-04-24T06:25:31;10.00;99.90
51884;DHT22;37915;53.254;6.598;2023-04-24T06:27:57;9.90;99.90
51884;DHT22;37915;53.254;6.598;2023-04-24T06:30:23;9.90;99.90
51884;DHT22;37915;53.254;6.598;2023-04-24T06:32:48;9.90;99.90
51884;DHT22;37915;53.254;6.598;2023-04-24T06:35:14;9.90;99.90
51884;DHT22;37915;53.254;6.598;2023-04-24T06:37:41;9.90;99.90
51884;DHT22;37915;53.254;6.598;2023-04-24T06:40:07;9.90;99.90
51884;DHT22;37915;53.254;6.598;2023-04-24T06:42:33;9.90;99.90
51884;DHT22;37915;53.254;6.598;2023-04-24T06:45:00;9.90;99.90
51884;DHT22;37915;53.254;6.598;2023-04-24T06:47:26;9.90;99.90
51884;DHT22;37915;53.254;6.598;2023-04-24T06:49:52;9.90;99.90
51884;DHT22;37915;53.254;6.598;2023-04-24T06:52:18;9.90;99.90
51884;DHT22;37915;53.254;6.598;2023-04-24T06:54:44;9.90;99.90
51884;DHT22;37915;53.254;6.598;2023-04-24T06:57:10;9.90;99.90
51884;DHT22;37915;53.254;6.598;2023-04-24T06:59:36;9.90;99.90
51884;DHT22;37915;53.254;6.598;2023-04-24T07:02:02;10.00;99.90
51884;DHT22;37915;53.254;6.598;2023-04-24T07:04:28;10.00;99.90
51884;DHT22;37915;53.254;6.598;2023-04-24T07:06:54;9.90;99.90
51884;DHT22;37915;53.254;6.598;2023-04-24T07:09:24;10.00;99.90
51884;DHT22;37915;53.254;6.598;2023-04-24T07:11:51;10.00;99.90
51884;DHT22;37915;53.254;6.598;2023-04-24T07:14:17;10.00;99.90
51884;DHT22;37915;53.254;6.598;2023-04-24T07:16:43;10.00;99.90
51884;DHT22;37915;53.254;6.598;2023-04-24T07:19:09;10.00;99.90
51884;DHT22;37915;53.254;6.598;2023-04-24T07:21:35;10.00;99.90
51884;DHT22;37915;53.254;6.598;2023-04-24T07:24:00;9.90;99.90
51884;DHT22;37915;53.254;6.598;2023-04-24T07:26:28;9.90;99.90
51884;DHT22;37915;53.254;6.598;2023-04-24T07:28:54;9.90;99.90
51884;DHT22;37915;53.254;6.598;2023-04-24T07:31:20;9.90;99.90
51884;DHT22;37915;53.254;6.598;2023-04-24T07:33:46;9.90;99.90
51884;DHT22;37915;53.254;6.598;2023-04-24T07:36:12;9.80;99.90
51884;DHT22;37915;53.254;6.598;2023-04-24T07:38:45;9.80;99.90
51884;DHT22;37915;53.254;6.598;2023-04-24T07:41:12;9.80;99.90
51884;DHT22;37915;53.254;6.598;2023-04-24T07:43:38;9.70;99.90
51884;DHT22;37915;53.254;6.598;2023-04-24T07:46:03;9.70;99.90
51884;DHT22;37915;53.254;6.598;2023-04-24T07:48:29;9.70;99.90
51884;DHT22;37915;53.254;6.598;2023-04-24T07:50:55;9.70;99.90
51884;DHT22;37915;53.254;6.598;2023-04-24T07:53:21;9.60;99.90
51884;DHT22;37915;53.254;6.598;2023-04-24T07:55:46;9.60;99.90
51884;DHT22;37915;53.254;6.598;2023-04-24T07:58:12;9.60;99.90
51884;DHT22;37915;53.254;6.598;2023-04-24T08:00:38;9.60;99.90
51884;DHT22;37915;53.254;6.598;2023-04-24T08:03:03;9.60;99.90
51884;DHT22;37915;53.254;6.598;2023-04-24T08:05:29;9.50;99.90
51884;DHT22;37915;53.254;6.598;2023-04-24T08:07:55;9.50;99.90
51884;DHT22;37915;53.254;6.598;2023-04-24T08:10:24;9.50;99.90
51884;DHT22;37915;53.254;6.598;2023-04-24T08:12:49;9.50;99.90
51884;DHT22;37915;53.254;6.598;2023-04-24T08:15:15;9.50;99.90
51884;DHT22;37915;53.254;6.598;2023-04-24T08:17:44;9.50;99.90
51884;DHT22;37915;53.254;6.598;2023-04-24T08:20:11;9.50;99.90
51884;DHT22;37915;53.254;6.598;2023-04-24T08:22:41;9.40;99.90
51884;DHT22;37915;53.254;6.598;2023-04-24T08:25:07;9.40;99.90
51884;DHT22;37915;53.254;6.598;2023-04-24T08:27:33;9.50;99.90
51884;DHT22;37915;53.254;6.598;2023-04-24T08:29:59;9.50;99.90
51884;DHT22;37915;53.254;6.598;2023-04-24T08:32:25;9.50;99.90
51884;DHT22;37915;53.254;6.598;2023-04-24T08:34:55;9.40;99.90
51884;DHT22;37915;53.254;6.598;2023-04-24T08:37:22;9.40;99.90
51884;DHT22;37915;53.254;6.598;2023-04-24T08:39:52;9.40;99.90
51884;DHT22;37915;53.254;6.598;2023-04-24T08:42:18;9.40;99.90
51884;DHT22;37915;53.254;6.598;2023-04-24T08:44:44;9.40;99.90
51884;DHT22;37915;53.254;6.598;2023-04-24T08:47:11;9.30;99.90
51884;DHT22;37915;53.254;6.598;2023-04-24T08:49:38;9.30;99.90
51884;DHT22;37915;53.254;6.598;2023-04-24T08:52:05;9.30;99.90
51884;DHT22;37915;53.254;6.598;2023-04-24T08:54:33;9.20;99.90
51884;DHT22;37915;53.254;6.598;2023-04-24T08:57:00;9.20;99.90
51884;DHT22;37915;53.254;6.598;2023-04-24T08:59:27;9.10;99.90
51884;DHT22;37915;53.254;6.598;2023-04-24T09:01:55;9.10;99.90
51884;DHT22;37915;53.254;6.598;2023-04-24T09:04:22;9.00;99.90
51884;DHT22;37915;53.254;6.598;2023-04-24T09:06:56;9.00;99.90
51884;DHT22;37915;53.254;6.598;2023-04-24T09:09:23;9.00;99.90
51884;DHT22;37915;53.254;6.598;2023-04-24T09:11:50;8.90;99.90
51884;DHT22;37915;53.254;6.598;2023-04-24T09:14:17;8.90;99.90
51884;DHT22;37915;53.254;6.598;2023-04-24T09:16:43;8.90;99.90
51884;DHT22;37915;53.254;6.598;2023-04-24T09:19:09;8.80;99.90
51884;DHT22;37915;53.254;6.598;2023-04-24T09:21:35;8.90;99.90
51884;DHT22;37915;53.254;6.598;2023-04-24T09:24:04;8.80;99.90
51884;DHT22;37915;53.254;6.598;2023-04-24T09:26:35;8.80;99.90
51884;DHT22;37915;53.254;6.598;2023-04-24T09:29:03;8.80;99.90
51884;DHT22;37915;53.254;6.598;2023-04-24T09:31:29;8.90;99.90
51884;DHT22;37915;53.254;6.598;2023-04-24T09:34:03;8.90;99.90
51884;DHT22;37915;53.254;6.598;2023-04-24T09:36:38;8.90;99.90
51884;DHT22;37915;53.254;6.598;2023-04-24T09:39:06;9.00;99.90
51884;DHT22;37915;53.254;6.598;2023-04-24T09:41:48;9.00;99.90
51884;DHT22;37915;53.254;6.598;2023-04-24T09:44:19;9.00;99.90
51884;DHT22;37915;53.254;6.598;2023-04-24T09:46:58;9.00;99.90
51884;DHT22;37915;53.254;6.598;2023-04-24T09:51:51;8.90;99.90
51884;DHT22;37915;53.254;6.598;2023-04-24T09:54:21;8.90;99.90
51884;DHT22;37915;53.254;6.598;2023-04-24T09:56:49;8.90;99.90
51884;DHT22;37915;53.254;6.598;2023-04-24T09:59:16;8.90;99.90
51884;DHT22;37915;53.254;6.598;2023-04-24T10:01:42;8.90;99.90
51884;DHT22;37915;53.254;6.598;2023-04-24T10:04:23;8.90;99.90
51884;DHT22;37915;53.254;6.598;2023-04-24T10:06:51;8.90;99.90
51884;DHT22;37915;53.254;6.598;2023-04-24T10:09:18;8.90;99.90
51884;DHT22;37915;53.254;6.598;2023-04-24T10:11:46;9.00;99.90
51884;DHT22;37915;53.254;6.598;2023-04-24T10:14:14;9.00;99.90
51884;DHT22;37915;53.254;6.598;2023-04-24T10:16:41;9.10;99.90
51884;DHT22;37915;53.254;6.598;2023-04-24T10:19:08;9.20;99.90
51884;DHT22;37915;53.254;6.598;2023-04-24T10:21:34;9.30;99.90
51884;DHT22;37915;53.254;6.598;2023-04-24T10:24:00;9.40;99.90
51884;DHT22;37915;53.254;6.598;2023-04-24T10:26:29;9.40;99.90
51884;DHT22;37915;53.254;6.598;2023-04-24T10:28:57;9.50;99.90
51884;DHT22;37915;53.254;6.598;2023-04-24T10:31:23;9.50;99.90
51884;DHT22;37915;53.254;6.598;2023-04-24T10:33:50;9.60;99.90
51884;DHT22;37915;53.254;6.598;2023-04-24T10:36:18;9.60;99.90
51884;DHT22;37915;53.254;6.598;2023-04-24T10:38:45;9.70;99.90
51884;DHT22;37915;53.254;6.598;2023-04-24T10:41:12;9.90;99.90
51884;DHT22;37915;53.254;6.598;2023-04-24T10:43:45;10.00;99.90
51884;DHT22;37915;53.254;6.598;2023-04-24T10:46:19;10.00;99.90
51884;DHT22;37915;53.254;6.598;2023-04-24T10:48:52;10.00;99.90
51884;DHT22;37915;53.254;6.598;2023-04-24T10:51:22;10.00;99.90
51884;DHT22;37915;53.254;6.598;2023-04-24T10:53:50;10.00;99.90
51884;DHT22;37915;53.254;6.598;2023-04-24T10:56:16;9.90;99.90
51884;DHT22;37915;53.254;6.598;2023-04-24T10:58:50;9.90;99.90
51884;DHT22;37915;53.254;6.598;2023-04-24T11:01:32;10.00;99.90
51884;DHT22;37915;53.254;6.598;2023-04-24T11:04:02;10.00;99.90
51884;DHT22;37915;53.254;6.598;2023-04-24T11:06:36;10.00;99.90
51884;DHT22;37915;53.254;6.598;2023-04-24T11:11:31;10.10;99.90
51884;DHT22;37915;53.254;6.598;2023-04-24T11:16:26;10.10;99.90
51884;DHT22;37915;53.254;6.598;2023-04-24T11:21:49;10.10;99.90
51884;DHT22;37915;53.254;6.598;2023-04-24T11:37:38;9.80;99.90
51884;DHT22;37915;53.254;6.598;2023-04-24T11:40:06;9.80;99.90
51884;DHT22;37915;53.254;6.598;2023-04-24T11:42:43;9.80;99.90
51884;DHT22;37915;53.254;6.598;2023-04-24T11:45:10;9.80;99.90
51884;DHT22;37915;53.254;6.598;2023-04-24T11:47:37;9.70;99.90
51884;DHT22;37915;53.254;6.598;2023-04-24T11:50:04;9.70;99.90
51884;DHT22;37915;53.254;6.598;2023-04-24T11:52:31;9.60;99.90
51884;DHT22;37915;53.254;6.598;2023-04-24T11:54:57;9.60;99.90
51884;DHT22;37915;53.254;6.598;2023-04-24T11:57:24;9.60;99.90
51884;DHT22;37915;53.254;6.598;2023-04-24T11:59:53;9.60;99.90
51884;DHT22;37915;53.254;6.598;2023-04-24T12:02:26;9.60;99.90
51884;DHT22;37915;53.254;6.598;2023-04-24T12:04:52;9.50;99.90
51884;DHT22;37915;53.254;6.598;2023-04-24T12:07:18;9.50;99.90
51884;DHT22;37915;53.254;6.598;2023-04-24T12:09:55;9.50;99.90
51884;DHT22;37915;53.254;6.598;2023-04-24T12:12:25;9.50;99.90
51884;DHT22;37915;53.254;6.598;2023-04-24T12:14:56;9.40;99.90
51884;DHT22;37915;53.254;6.598;2023-04-24T12:17:31;9.40;99.90
51884;DHT22;37915;53.254;6.598;2023-04-24T12:20:01;9.30;99.90
51884;DHT22;37915;53.254;6.598;2023-04-24T12:22:28;9.30;99.90
51884;DHT22;37915;53.254;6.598;2023-04-24T12:25:10;9.20;99.90
51884;DHT22;37915;53.254;6.598;2023-04-24T12:27:36;9.20;99.90
51884;DHT22;37915;53.254;6.598;2023-04-24T12:30:04;9.20;99.90
51884;DHT22;37915;53.254;6.598;2023-04-24T12:32:31;9.20;99.90
51884;DHT22;37915;53.254;6.598;2023-04-24T12:34:57;9.30;99.90
51884;DHT22;37915;53.254;6.598;2023-04-24T12:37:25;9.30;99.90
51884;DHT22;37915;53.254;6.598;2023-04-24T12:40:07;9.40;99.90
51884;DHT22;37915;53.254;6.598;2023-04-24T12:42:34;9.50;99.90
51884;DHT22;37915;53.254;6.598;2023-04-24T12:45:05;9.60;99.90
51884;DHT22;37915;53.254;6.598;2023-04-24T12:47:32;9.80;99.90
51884;DHT22;37915;53.254;6.598;2023-04-24T12:49:58;9.90;99.90
51884;DHT22;37915;53.254;6.598;2023-04-24T12:52:25;9.90;99.90
51884;DHT22;37915;53.254;6.598;2023-04-24T12:54:57;9.90;99.90
51884;DHT22;37915;53.254;6.598;2023-04-24T12:57:25;9.90;99.90
51884;DHT22;37915;53.254;6.598;2023-04-24T12:59:55;9.80;99.90
51884;DHT22;37915;53.254;6.598;2023-04-24T13:02:26;9.70;99.90
51884;DHT22;37915;53.254;6.598;2023-04-24T13:04:52;9.70;99.90
51884;DHT22;37915;53.254;6.598;2023-04-24T13:07:18;9.60;99.90
51884;DHT22;37915;53.254;6.598;2023-04-24T13:09:44;9.50;99.90
51884;DHT22;37915;53.254;6.598;2023-04-24T13:12:11;9.50;99.90
51884;DHT22;37915;53.254;6.598;2023-04-24T13:14:37;9.40;99.90
51884;DHT22;37915;53.254;6.598;2023-04-24T13:17:04;9.40;99.90
51884;DHT22;37915;53.254;6.598;2023-04-24T13:19:34;9.40;99.90
51884;DHT22;37915;53.254;6.598;2023-04-24T13:22:00;9.30;99.90
51884;DHT22;37915;53.254;6.598;2023-04-24T13:24:26;9.30;99.90
51884;DHT22;37915;53.254;6.598;2023-04-24T13:26:52;9.20;99.90
51884;DHT22;37915;53.254;6.598;2023-04-24T13:29:18;9.20;99.90
51884;DHT22;37915;53.254;6.598;2023-04-24T13:31:44;9.10;99.90
51884;DHT22;37915;53.254;6.598;2023-04-24T13:34:10;9.20;99.90
51884;DHT22;37915;53.254;6.598;2023-04-24T13:36:36;9.20;99.90
51884;DHT22;37915;53.254;6.598;2023-04-24T13:39:02;9.30;99.90
51884;DHT22;37915;53.254;6.598;2023-04-24T13:41:30;9.30;99.90
51884;DHT22;37915;53.254;6.598;2023-04-24T13:43:56;9.40;99.90
51884;DHT22;37915;53.254;6.598;2023-04-24T13:46:21;9.50;99.90
51884;DHT22;37915;53.254;6.598;2023-04-24T13:48:47;9.80;99.90
51884;DHT22;37915;53.254;6.598;2023-04-24T13:51:13;9.50;99.90
51884;DHT22;37915;53.254;6.598;2023-04-24T13:53:39;9.50;99.90
51884;DHT22;37915;53.254;6.598;2023-04-24T13:56:05;9.50;99.90
51884;DHT22;37915;53.254;6.598;2023-04-24T13:58:31;9.50;99.90
51884;DHT22;37915;53.254;6.598;2023-04-24T14:00:57;9.50;99.90
51884;DHT22;37915;53.254;6.598;2023-04-24T14:03:23;9.50;99.90
51884;DHT22;37915;53.254;6.598;2023-04-24T14:05:49;9.40;99.90
51884;DHT22;37915;53.254;6.598;2023-04-24T14:08:15;9.30;99.90
51884;DHT22;37915;53.254;6.598;2023-04-24T14:10:42;9.20;99.90
51884;DHT22;37915;53.254;6.598;2023-04-24T14:13:08;9.10;99.90
51884;DHT22;37915;53.254;6.598;2023-04-24T14:15:35;9.00;99.90
51884;DHT22;37915;53.254;6.598;2023-04-24T14:18:01;8.90;99.90
51884;DHT22;37915;53.254;6.598;2023-04-24T14:20:26;8.90;99.90
51884;DHT22;37915;53.254;6.598;2023-04-24T14:22:52;8.90;99.90
51884;DHT22;37915;53.254;6.598;2023-04-24T14:25:18;8.90;99.90
51884;DHT22;37915;53.254;6.598;2023-04-24T14:27:44;8.90;99.90
51884;DHT22;37915;53.254;6.598;2023-04-24T14:30:12;8.90;99.90
51884;DHT22;37915;53.254;6.598;2023-04-24T14:32:39;8.90;99.90
51884;DHT22;37915;53.254;6.598;2023-04-24T14:35:05;8.90;99.90
51884;DHT22;37915;53.254;6.598;2023-04-24T14:37:31;8.80;99.90
51884;DHT22;37915;53.254;6.598;2023-04-24T14:39:57;8.80;99.90
51884;DHT22;37915;53.254;6.598;2023-04-24T14:42:23;8.80;99.90
51884;DHT22;37915;53.254;6.598;2023-04-24T14:44:49;8.70;99.90
51884;DHT22;37915;53.254;6.598;2023-04-24T14:47:15;8.70;99.90
51884;DHT22;37915;53.254;6.598;2023-04-24T14:49:43;8.70;99.90
51884;DHT22;37915;53.254;6.598;2023-04-24T14:52:10;8.70;99.90
51884;DHT22;37915;53.254;6.598;2023-04-24T14:54:36;8.70;99.90
51884;DHT22;37915;53.254;6.598;2023-04-24T14:57:02;8.80;99.90
51884;DHT22;37915;53.254;6.598;2023-04-24T14:59:28;8.80;99.90
51884;DHT22;37915;53.254;6.598;2023-04-24T15:01:56;8.90;99.90
51884;DHT22;37915;53.254;6.598;2023-04-24T15:04:27;8.80;99.90
51884;DHT22;37915;53.254;6.598;2023-04-24T15:06:56;8.80;99.90
51884;DHT22;37915;53.254;6.598;2023-04-24T15:09:23;8.00;99.90
51884;DHT22;37915;53.254;6.598;2023-04-24T15:11:50;8.80;99.90
51884;DHT22;37915;53.254;6.598;2023-04-24T15:14:16;8.80;99.90
51884;DHT22;37915;53.254;6.598;2023-04-24T15:16:42;8.80;99.90
51884;DHT22;37915;53.254;6.598;2023-04-24T15:19:08;8.80;99.90
51884;DHT22;37915;53.254;6.598;2023-04-24T15:21:36;8.90;99.90
51884;DHT22;37915;53.254;6.598;2023-04-24T15:24:14;8.80;99.90
51884;DHT22;37915;53.254;6.598;2023-04-24T15:33:49;8.90;99.90
51884;DHT22;37915;53.254;6.598;2023-04-24T15:36:15;8.90;99.90
51884;DHT22;37915;53.254;6.598;2023-04-24T15:38:43;9.00;99.90
51884;DHT22;37915;53.254;6.598;2023-04-24T15:41:14;9.00;99.90
51884;DHT22;37915;53.254;6.598;2023-04-24T15:43:40;9.00;99.90
51884;DHT22;37915;53.254;6.598;2023-04-24T15:46:09;9.10;99.90
51884;DHT22;37915;53.254;6.598;2023-04-24T15:48:35;9.20;99.90
51884;DHT22;37915;53.254;6.598;2023-04-24T15:51:01;9.20;99.90
51884;DHT22;37915;53.254;6.598;2023-04-24T15:53:26;9.10;99.90
51884;DHT22;37915;53.254;6.598;2023-04-24T15:55:53;9.00;99.90
51884;DHT22;37915;53.254;6.598;2023-04-24T15:58:22;8.90;99.90
51884;DHT22;37915;53.254;6.598;2023-04-24T16:00:48;8.90;99.90
51884;DHT22;37915;53.254;6.598;2023-04-24T16:03:13;8.80;99.90
51884;DHT22;37915;53.254;6.598;2023-04-24T16:05:39;8.80;99.90
51884;DHT22;37915;53.254;6.598;2023-04-24T16:08:05;8.70;99.90